EGLCEKBI

Guest
Details From EGLC - London City
To EKBI - Billund
Flight Number -
Tags Generated
Created
Modified
Stats Distance 411 nm / 761 km
Max Altitude 0 ft / 0 m
Waypoints 3
Social Downloads 2
Likes 0
Share VATSIM

Download

Looking for another format? Having issues loading an existing format? Contact us
Advertisement - Login to hide

Notes

Generated

Route

EGLC EJ EKBI

ID Type Via Altitude Latitude Longitude Leg Dist Tot Dist Heading (true) Name
O EGLC APT - 0 ft / 0 m 51.50558˚ 0.04414˚ - 0 nm - -
EJ NDB - 0 ft / 0 m 55.54125˚ 8.69975˚ 392 nm 392 nm 48° / 55° Esbjerg LOM
O EKBI APT - 0 ft / 0 m 55.73971˚ 9.13243˚ 18 nm 411 nm 51° / 51° -

Altitude Profile

Advertisement - Login to hide

Weather


0- 5 10 15 20 25 30 35+ Temperature / ° C

Clouds and Precipitation
Forecast for 2017-12-13 12:00 UTC. Updated 3 minutes ago

Ground ~20,000 ft ~40,000 ft Winds

EGLC

Details ICAO EGLC (LCY)
Name London City
Region United Kingdom
Timezone Europe/London (UTC+0.0)
Stats Elevation 19 ft / 6 m (AMSL)
Location 51.505231° 0.055175°
Runways 1
Magnetic Variation 0.385° W

METAR

EGLC 131120Z AUTO 23009KT 9999 -RA FEW029 SCT039 BKN046 08/06 Q0997

Decode

TAF

Not found

Departure Runways

ID Width Length Bearing (true) Bearing (mag) Surface Threshold Offset Overrun Length
09 98 ft / 30 m 4,931 ft / 1,503 m 92.89° 93.27° Concrete 322 ft / 98 m 164 ft / 50 m
27 98 ft / 30 m 4,931 ft / 1,503 m 272.91° 273.29° Concrete 243 ft / 74 m 279 ft / 85 m

EKBI

Details ICAO EKBI (BLL)
Name Billund
Region Denmark / Faroe Islands
Timezone Europe/Copenhagen (UTC+1.0)
Stats Elevation 247 ft / 75 m (AMSL)
Location 55.736183° 9.152056°
Runways 2
Magnetic Variation 2.521° E

METAR

EKBI 131120Z 18013KT 150V210 4000 -RA BKN005 01/01 Q0994 R09/D

Decode

TAF

TAF AMD EKBI 130835Z 1306/1406 20015KT 5000 -RADZ BR BKN008 TEMPO 1308/1319 19018G28KT 1200 RASN BKN002 TEMPO 1319/1401 1200 SHRASN BR BKN002 SCT020CB TEMPO 1401/1404 1200 SNRA BR BKN002 BECMG 1404/1406 SCT020CB

Decode

Destination Runways

ID Width Length Bearing (true) Bearing (mag) Surface Threshold Offset Overrun Length
09 148 ft / 45 m 9,165 ft / 2,794 m 86.83° 84.31° Asphalt 351 ft / 107 m 0 ft / 0 m
10 98 ft / 30 m 2,017 ft / 615 m 93.89° 91.37° Grass 0 ft / 0 m 0 ft / 0 m
27 148 ft / 45 m 9,165 ft / 2,794 m 266.87° 264.35° Asphalt 351 ft / 107 m 0 ft / 0 m
28 98 ft / 30 m 2,017 ft / 615 m 273.89° 271.37° Grass 0 ft / 0 m 0 ft / 0 m

Approach Navaids

Runway Type Ident Frequency Range Bearing (true) Bearing (mag) Slope Elevation
09 Localiser BIL 111.70 MHz 18 nm / 33 km 86.87° 84.35° - 247 ft / 75 m (AMSL)
09 Glidescope BIL 111.70 MHz 10 nm / 19 km 86.85° 84.33° 3.00° 247 ft / 75 m (AMSL)
27 Localiser LEL 110.70 MHz 18 nm / 33 km 266.83° 264.31° - 247 ft / 75 m (AMSL)
27 Glidescope LEL 110.70 MHz 10 nm / 19 km 266.85° 264.33° 3.00° 247 ft / 75 m (AMSL)
27 DME LEL 110.70 MHz 18 nm / 33 km - - - 246 ft / 75 m (AMSL)

Popular Alternatives